createdAt,value
2022-10-28T00:00:03.684Z,17.20
2022-10-28T00:02:33.270Z,17.42
2022-10-28T00:05:06.163Z,16.50
2022-10-28T00:07:37.961Z,15.40
2022-10-28T00:10:06.399Z,14.43
2022-10-28T00:12:40.039Z,15.40
2022-10-28T00:15:09.081Z,15.67
2022-10-28T00:17:39.952Z,14.90
2022-10-28T00:20:11.827Z,15.63
2022-10-28T00:22:40.597Z,14.20
2022-10-28T00:25:13.307Z,15.68
2022-10-28T00:27:40.625Z,14.30
2022-10-28T00:30:11.070Z,14.57
2022-10-28T00:32:39.404Z,14.10
2022-10-28T00:35:07.775Z,17.45
2022-10-28T00:37:37.719Z,15.75
2022-10-28T00:40:10.674Z,16.05
2022-10-28T00:42:44.276Z,15.65
2022-10-28T00:45:16.933Z,15.88
2022-10-28T00:48:02.195Z,14.57
2022-10-28T00:50:47.778Z,14.05
2022-10-28T00:53:29.157Z,14.60
2022-10-28T00:55:57.772Z,14.52
2022-10-28T00:58:29.216Z,14.48
2022-10-28T01:00:57.432Z,14.32
2022-10-28T01:03:27.863Z,14.32
2022-10-28T01:05:57.856Z,15.70
2022-10-28T01:08:27.799Z,13.75
2022-10-28T01:11:06.750Z,14.43
2022-10-28T01:13:57.956Z,13.75
2022-10-28T01:16:43.821Z,14.48
2022-10-28T01:19:51.116Z,13.98
2022-10-28T01:22:40.284Z,15.27
2022-10-28T01:25:14.903Z,14.32
2022-10-28T01:28:03.649Z,14.13
2022-10-28T01:31:23.025Z,13.07
2022-10-28T01:34:08.675Z,12.88
2022-10-28T01:36:51.513Z,13.73
2022-10-28T01:39:49.750Z,13.27
2022-10-28T01:42:36.001Z,14.07
2022-10-28T01:45:31.015Z,13.05
2022-10-28T01:48:16.041Z,13.40
2022-10-28T01:51:02.042Z,13.50
2022-10-28T01:53:35.056Z,13.65
2022-10-28T01:56:08.421Z,13.43
2022-10-28T01:58:38.934Z,9.80
2022-10-28T02:01:10.185Z,13.85
2022-10-28T02:03:40.283Z,13.02
2022-10-28T02:06:21.378Z,13.32
2022-10-28T02:09:24.650Z,13.00
2022-10-28T02:12:23.266Z,13.48
2022-10-28T02:15:53.958Z,14.57
2022-10-28T02:18:35.159Z,12.70
2022-10-28T02:21:24.043Z,12.50
2022-10-28T02:24:20.027Z,12.50
2022-10-28T02:26:55.452Z,13.15
2022-10-28T02:29:50.447Z,12.35
2022-10-28T02:32:25.225Z,13.80
2022-10-28T02:34:56.924Z,12.75
2022-10-28T02:37:31.263Z,12.90
2022-10-28T02:40:06.592Z,13.82
2022-10-28T02:43:00.687Z,13.20
2022-10-28T02:45:35.635Z,13.48
2022-10-28T02:48:19.210Z,13.02
2022-10-28T02:50:54.233Z,13.00
2022-10-28T02:53:45.235Z,13.35
2022-10-28T02:56:17.124Z,13.55
2022-10-28T02:58:47.545Z,9.68
2022-10-28T03:01:17.176Z,13.05
2022-10-28T03:03:44.949Z,11.38
2022-10-28T03:06:13.234Z,12.30
2022-10-28T03:08:45.240Z,11.43
2022-10-28T03:11:15.159Z,10.82
2022-10-28T03:13:44.968Z,12.60
2022-10-28T03:16:15.240Z,12.13
2022-10-28T03:18:46.484Z,12.05
2022-10-28T03:21:17.028Z,12.25
2022-10-28T03:23:47.060Z,12.23
2022-10-28T03:26:14.898Z,12.68
2022-10-28T03:28:45.282Z,13.30
2022-10-28T03:31:14.953Z,13.63
2022-10-28T03:33:43.663Z,12.25
2022-10-28T03:36:16.305Z,12.95
2022-10-28T03:38:43.575Z,13.15
2022-10-28T03:41:11.697Z,13.05
2022-10-28T03:43:42.214Z,13.52
2022-10-28T03:46:10.843Z,12.50
2022-10-28T03:48:38.615Z,12.13
2022-10-28T03:51:07.323Z,12.75
2022-10-28T03:53:38.649Z,12.25
2022-10-28T03:56:09.656Z,12.35
2022-10-28T03:58:41.211Z,13.43
2022-10-28T04:01:12.195Z,12.77
2022-10-28T04:03:42.165Z,12.45
2022-10-28T04:06:12.583Z,11.23
2022-10-28T04:08:41.762Z,11.95
2022-10-28T04:11:11.766Z,11.55
2022-10-28T04:13:42.258Z,12.43
2022-10-28T04:16:12.879Z,12.30
2022-10-28T04:18:45.280Z,12.68
2022-10-28T04:21:15.096Z,11.30
2022-10-28T04:23:42.769Z,12.75
2022-10-28T04:26:10.904Z,13.18
2022-10-28T04:28:38.669Z,13.82
2022-10-28T04:31:10.491Z,12.95
2022-10-28T04:33:41.377Z,14.35
2022-10-28T04:36:09.180Z,14.77
2022-10-28T04:38:38.022Z,14.77
2022-10-28T04:41:06.872Z,15.25
2022-10-28T04:43:38.246Z,13.93
2022-10-28T04:46:08.196Z,15.27
2022-10-28T04:48:40.455Z,14.85
2022-10-28T04:51:09.933Z,14.93
2022-10-28T04:53:37.675Z,14.73
2022-10-28T04:56:09.482Z,16.42
2022-10-28T04:58:43.568Z,16.70
2022-10-28T05:03:44.690Z,18.40
2022-10-28T05:06:15.065Z,16.45
2022-10-28T05:08:42.669Z,16.13
2022-10-28T05:11:10.691Z,30.90
2022-10-28T05:13:38.697Z,25.00
2022-10-28T05:16:10.665Z,25.10
2022-10-28T05:18:38.758Z,23.92
2022-10-28T05:21:10.279Z,32.72
2022-10-28T05:23:38.013Z,23.88
2022-10-28T05:26:06.197Z,25.17
2022-10-28T05:28:37.356Z,21.65
2022-10-28T05:31:04.801Z,18.65
2022-10-28T05:33:36.420Z,16.98
2022-10-28T05:36:07.137Z,16.20
2022-10-28T05:38:42.115Z,15.38
2022-10-28T05:41:13.782Z,10.50
2022-10-28T05:43:44.100Z,11.90
2022-10-28T05:46:15.364Z,13.13
2022-10-28T05:48:42.466Z,13.65
2022-10-28T05:51:09.762Z,13.00
2022-10-28T05:53:37.799Z,15.10
2022-10-28T05:56:07.080Z,15.27
2022-10-28T05:58:37.003Z,14.88
2022-10-28T06:01:09.376Z,15.32
2022-10-28T06:03:39.078Z,14.68
2022-10-28T06:06:10.073Z,14.05
2022-10-28T06:08:37.754Z,15.07
2022-10-28T06:11:06.971Z,16.50
2022-10-28T06:13:35.920Z,22.83
2022-10-28T06:16:04.691Z,21.08
2022-10-28T06:18:32.621Z,19.90
2022-10-28T06:21:04.884Z,22.05
2022-10-28T06:23:32.273Z,20.50
2022-10-28T06:26:03.014Z,18.50
2022-10-28T06:28:30.829Z,17.45
2022-10-28T06:31:05.944Z,17.58
2022-10-28T06:33:33.777Z,17.27
2022-10-28T06:36:05.952Z,18.23
2022-10-28T06:38:36.599Z,18.05
2022-10-28T06:41:04.591Z,18.90
2022-10-28T06:43:32.336Z,19.38
2022-10-28T06:46:04.581Z,18.27
2022-10-28T06:48:35.812Z,18.92
2022-10-28T06:51:06.442Z,18.33
2022-10-28T06:53:37.518Z,19.02
2022-10-28T06:56:08.627Z,21.13
2022-10-28T06:58:39.642Z,22.50
2022-10-28T07:01:09.281Z,21.95
2022-10-28T07:03:37.162Z,22.88
2022-10-28T07:06:07.535Z,21.83
2022-10-28T07:08:38.581Z,22.92
2022-10-28T07:11:08.555Z,23.33
2022-10-28T07:13:35.914Z,22.52
2022-10-28T07:16:07.610Z,20.50
2022-10-28T07:18:37.282Z,22.35
2022-10-28T07:21:05.012Z,21.45
2022-10-28T07:23:33.028Z,23.48
2022-10-28T07:26:04.390Z,22.92
2022-10-28T07:28:35.607Z,23.73
2022-10-28T07:31:04.496Z,21.40
2022-10-28T07:33:32.600Z,23.52
2022-10-28T07:36:09.390Z,24.27
2022-10-28T07:38:40.386Z,23.40
2022-10-28T07:41:09.579Z,23.23
2022-10-28T07:43:43.535Z,23.92
2022-10-28T07:46:10.943Z,23.95
2022-10-28T07:48:40.519Z,24.50
2022-10-28T07:51:10.851Z,26.15
2022-10-28T07:53:39.435Z,26.88
2022-10-28T07:56:16.364Z,27.10
2022-10-28T07:58:46.181Z,27.48
2022-10-28T08:01:16.415Z,27.65
2022-10-28T08:03:44.253Z,28.88
2022-10-28T08:06:21.527Z,26.05
2022-10-28T08:08:55.865Z,28.38
2022-10-28T08:11:24.078Z,21.10
2022-10-28T08:13:53.309Z,31.25
2022-10-28T08:16:20.931Z,29.70
2022-10-28T08:18:49.924Z,27.23
2022-10-28T08:21:18.038Z,27.60
2022-10-28T08:23:49.072Z,28.50
2022-10-28T08:26:17.669Z,28.50
2022-10-28T08:28:45.010Z,27.30
2022-10-28T08:31:14.214Z,28.40
2022-10-28T08:33:45.351Z,29.60
2022-10-28T08:36:16.926Z,28.35
2022-10-28T08:38:46.100Z,29.40
2022-10-28T08:41:38.447Z,28.50
2022-10-28T08:44:49.681Z,28.73
2022-10-28T08:47:30.045Z,29.15
2022-10-28T08:50:14.338Z,28.95
2022-10-28T08:53:27.987Z,29.25
2022-10-28T08:56:05.239Z,31.10
2022-10-28T08:58:38.593Z,29.23
2022-10-28T09:01:19.162Z,30.88
2022-10-28T09:03:50.914Z,29.85
2022-10-28T09:06:19.406Z,30.30
2022-10-28T09:08:54.083Z,30.55
2022-10-28T09:11:41.248Z,31.58
2022-10-28T09:14:20.727Z,30.77
2022-10-28T09:17:04.407Z,30.42
2022-10-28T09:19:50.755Z,31.70
2022-10-28T09:22:32.199Z,30.42
2022-10-28T09:25:49.273Z,33.33
2022-10-28T09:28:39.021Z,34.60
2022-10-28T09:31:37.031Z,31.80
2022-10-28T09:34:40.223Z,32.15
2022-10-28T09:37:50.390Z,32.13
2022-10-28T09:40:24.473Z,31.52
2022-10-28T09:43:24.458Z,35.53
2022-10-28T09:46:00.949Z,34.85
2022-10-28T09:48:39.374Z,34.28
2022-10-28T09:51:10.541Z,34.75
2022-10-28T09:53:38.049Z,32.83
2022-10-28T09:58:49.685Z,32.78
2022-10-28T10:01:21.068Z,34.92
2022-10-28T10:03:51.728Z,32.88
2022-10-28T10:06:28.073Z,34.60
2022-10-28T10:08:59.607Z,36.42
2022-10-28T10:11:50.594Z,32.92
2022-10-28T10:14:26.157Z,35.60
2022-10-28T10:17:09.957Z,35.92
2022-10-28T10:20:19.971Z,35.28
2022-10-28T10:22:49.952Z,35.45
2022-10-28T10:25:18.024Z,38.28
2022-10-28T10:28:05.532Z,37.85
2022-10-28T10:30:57.329Z,37.50
2022-10-28T10:33:33.313Z,40.33
2022-10-28T10:36:17.574Z,37.00
2022-10-28T10:38:55.792Z,37.10
2022-10-28T10:41:43.615Z,37.25
2022-10-28T10:45:00.834Z,37.65
2022-10-28T10:47:31.829Z,40.60
2022-10-28T10:53:05.581Z,39.00
2022-10-28T10:55:40.276Z,41.80
2022-10-28T10:58:21.449Z,41.05
2022-10-28T11:00:53.870Z,41.63
2022-10-28T11:03:48.490Z,40.33
2022-10-28T11:06:26.435Z,38.20
2022-10-28T11:09:04.595Z,44.00
2022-10-28T11:11:58.274Z,42.45
2022-10-28T11:14:35.146Z,42.95
2022-10-28T11:17:06.687Z,43.38
2022-10-28T11:19:38.369Z,43.25
2022-10-28T11:22:28.207Z,40.83
2022-10-28T11:25:26.710Z,36.80
2022-10-28T11:28:17.017Z,38.45
2022-10-28T11:31:30.564Z,35.05
2022-10-28T11:34:37.369Z,36.42
2022-10-28T11:37:33.625Z,33.47
2022-10-28T11:40:37.418Z,28.23
2022-10-28T11:43:34.939Z,30.38
2022-10-28T11:46:40.118Z,20.85
2022-10-28T11:49:43.194Z,18.15
2022-10-28T11:52:42.752Z,17.27
2022-10-28T11:55:55.478Z,20.85
2022-10-28T11:59:02.525Z,19.77
2022-10-28T12:02:36.238Z,17.13
2022-10-28T12:05:45.709Z,21.17
2022-10-28T12:09:04.011Z,18.33
2022-10-28T12:11:40.900Z,17.63
2022-10-28T12:14:29.134Z,19.15
2022-10-28T12:17:09.360Z,19.05
2022-10-28T12:20:01.619Z,18.77
2022-10-28T12:22:54.082Z,11.70
2022-10-28T12:25:31.496Z,11.52
2022-10-28T12:28:06.770Z,17.80
2022-10-28T12:30:37.871Z,18.20
2022-10-28T12:33:44.442Z,21.63
2022-10-28T12:36:48.640Z,17.83
2022-10-28T12:39:34.264Z,20.77
2022-10-28T12:42:42.372Z,23.15
2022-10-28T12:45:18.274Z,22.95
2022-10-28T12:48:06.918Z,22.13
2022-10-28T12:50:53.126Z,21.30
2022-10-28T12:54:00.399Z,18.42
2022-10-28T12:56:49.310Z,15.82
2022-10-28T13:00:06.955Z,15.23
2022-10-28T13:02:48.696Z,13.43
2022-10-28T13:05:31.781Z,9.48
2022-10-28T13:08:39.899Z,8.07
2022-10-28T13:11:21.346Z,8.38
2022-10-28T13:14:25.262Z,8.73
2022-10-28T13:17:30.936Z,7.70
2022-10-28T13:20:17.227Z,8.25
2022-10-28T13:23:07.655Z,8.55
2022-10-28T13:26:06.449Z,5.75
2022-10-28T13:28:43.737Z,6.30
2022-10-28T13:31:11.326Z,6.72
2022-10-28T13:33:54.770Z,5.20
2022-10-28T13:36:27.288Z,5.20
2022-10-28T13:39:06.313Z,5.30
2022-10-28T13:41:43.538Z,8.23
2022-10-28T13:44:29.167Z,6.93
2022-10-28T13:47:23.523Z,6.55
2022-10-28T13:50:13.337Z,6.05
2022-10-28T13:52:47.182Z,6.82
2022-10-28T13:55:14.267Z,5.07
2022-10-28T13:57:53.926Z,7.13
2022-10-28T14:00:23.900Z,5.97
2022-10-28T14:03:16.704Z,7.10
2022-10-28T14:05:49.541Z,7.68
2022-10-28T14:08:40.829Z,7.18
2022-10-28T14:11:23.058Z,8.60
2022-10-28T14:14:05.764Z,12.77
2022-10-28T14:16:45.788Z,11.57
2022-10-28T14:19:27.530Z,11.85
2022-10-28T14:22:01.527Z,11.43
2022-10-28T14:24:35.855Z,11.82
2022-10-28T14:27:12.046Z,12.50
2022-10-28T14:29:53.914Z,12.05
2022-10-28T14:32:40.372Z,11.40
2022-10-28T14:35:23.594Z,12.93
2022-10-28T14:38:22.987Z,12.27
2022-10-28T14:41:29.409Z,14.70
2022-10-28T14:44:16.254Z,11.73
2022-10-28T14:47:20.894Z,13.35
2022-10-28T14:50:21.127Z,14.35
2022-10-28T14:52:50.427Z,13.05
2022-10-28T14:55:41.130Z,13.00
2022-10-28T14:58:24.116Z,10.80
2022-10-28T15:01:15.383Z,10.57
2022-10-28T15:03:47.000Z,11.60
2022-10-28T15:06:44.113Z,11.23
2022-10-28T15:09:29.309Z,11.38
2022-10-28T15:12:10.137Z,12.82
2022-10-28T15:14:56.042Z,12.75
2022-10-28T15:17:38.727Z,14.15
2022-10-28T15:20:34.290Z,14.85
2022-10-28T15:23:21.803Z,16.52
2022-10-28T15:26:17.132Z,16.63
2022-10-28T15:31:11.431Z,18.48
2022-10-28T15:33:44.420Z,21.77
2022-10-28T15:36:19.400Z,21.63
2022-10-28T15:39:05.490Z,22.65
2022-10-28T15:41:43.870Z,22.45
2022-10-28T15:44:41.108Z,23.25
2022-10-28T15:47:24.657Z,24.63
2022-10-28T15:50:20.183Z,18.33
2022-10-28T15:52:50.456Z,26.42
2022-10-28T15:55:41.292Z,29.17
2022-10-28T15:58:19.232Z,29.67
2022-10-28T16:00:56.326Z,28.05
2022-10-28T16:06:04.947Z,26.52
2022-10-28T16:08:37.223Z,33.03
2022-10-28T16:11:18.215Z,30.67
2022-10-28T16:13:53.042Z,28.13
2022-10-28T16:16:37.876Z,28.83
2022-10-28T16:19:17.273Z,28.95
2022-10-28T16:21:44.729Z,27.98
2022-10-28T16:24:14.598Z,28.52
2022-10-28T16:26:43.833Z,29.17
2022-10-28T16:29:14.072Z,27.50
2022-10-28T16:31:53.616Z,26.02
2022-10-28T16:34:24.465Z,24.35
2022-10-28T16:36:55.624Z,25.70
2022-10-28T16:39:25.223Z,25.73
2022-10-28T16:41:57.220Z,26.73
2022-10-28T16:44:33.314Z,26.88
2022-10-28T16:47:02.943Z,28.25
2022-10-28T16:49:35.933Z,31.73
2022-10-28T16:52:06.846Z,37.42
2022-10-28T16:54:37.989Z,38.08
2022-10-28T16:57:06.764Z,33.13
2022-10-28T16:59:37.590Z,36.25
2022-10-28T17:02:11.231Z,37.00
2022-10-28T17:04:41.540Z,41.72
2022-10-28T17:07:15.243Z,35.50
2022-10-28T17:09:49.827Z,31.88
2022-10-28T17:12:20.733Z,30.33
2022-10-28T17:14:51.335Z,30.58
2022-10-28T17:17:24.931Z,31.13
2022-10-28T17:19:57.242Z,34.47
2022-10-28T17:22:31.986Z,31.88
2022-10-28T17:25:03.844Z,28.98
2022-10-28T17:27:37.566Z,29.52
2022-10-28T17:30:10.286Z,31.70
2022-10-28T17:32:41.674Z,29.10
2022-10-28T17:35:15.587Z,29.67
2022-10-28T17:37:44.717Z,29.05
2022-10-28T17:40:13.464Z,28.17
2022-10-28T17:42:44.134Z,27.92
2022-10-28T17:45:17.863Z,26.65
2022-10-28T17:47:54.225Z,26.98
2022-10-28T17:50:24.210Z,26.30
2022-10-28T17:52:57.772Z,28.48
2022-10-28T17:55:35.080Z,27.23
2022-10-28T17:58:08.024Z,25.52
2022-10-28T18:00:40.638Z,28.38
2022-10-28T18:03:11.083Z,30.50
2022-10-28T18:05:44.126Z,29.30
2022-10-28T18:08:16.999Z,32.72
2022-10-28T18:10:59.778Z,41.00
2022-10-28T18:13:34.726Z,43.00
2022-10-28T18:16:17.028Z,42.45
2022-10-28T18:18:46.466Z,42.53
2022-10-28T18:21:21.554Z,43.33
2022-10-28T18:24:06.025Z,41.78
2022-10-28T18:26:38.405Z,40.60
2022-10-28T18:29:10.806Z,42.20
2022-10-28T18:34:25.087Z,41.20
2022-10-28T18:36:58.115Z,42.67
2022-10-28T18:39:30.973Z,45.05
2022-10-28T18:42:03.161Z,43.65
2022-10-28T18:44:35.874Z,38.75
2022-10-28T18:47:08.885Z,37.10
2022-10-28T18:49:39.204Z,38.63
2022-10-28T18:52:10.265Z,36.83
2022-10-28T18:54:41.974Z,33.80
2022-10-28T18:57:12.515Z,32.55
2022-10-28T19:00:16.372Z,31.48
2022-10-28T19:02:33.851Z,31.10
2022-10-28T19:05:07.168Z,32.20
2022-10-28T19:07:39.413Z,33.13
2022-10-28T19:10:12.146Z,31.17
2022-10-28T19:12:43.622Z,30.48
2022-10-28T19:15:16.444Z,32.03
2022-10-28T19:17:43.720Z,29.42
2022-10-28T19:20:15.176Z,29.40
2022-10-28T19:22:46.517Z,26.73
2022-10-28T19:25:21.166Z,29.92
2022-10-28T19:30:23.207Z,27.63
2022-10-28T19:32:54.120Z,34.95
2022-10-28T19:35:25.365Z,41.88
2022-10-28T19:37:56.673Z,37.55
2022-10-28T19:40:27.874Z,29.48
2022-10-28T19:42:58.349Z,29.23
2022-10-28T19:45:34.833Z,29.08
2022-10-28T19:48:05.499Z,34.65
2022-10-28T19:50:40.890Z,32.95
2022-10-28T19:53:08.791Z,31.90
2022-10-28T19:55:41.303Z,28.92
2022-10-28T19:58:12.243Z,27.80
2022-10-28T20:00:45.003Z,27.58
2022-10-28T20:03:16.807Z,28.95
2022-10-28T20:05:44.789Z,26.08
2022-10-28T20:08:17.706Z,27.55
2022-10-28T20:10:46.972Z,25.65
2022-10-28T20:13:19.154Z,27.15
2022-10-28T20:15:46.815Z,26.83
2022-10-28T20:18:17.053Z,28.00
2022-10-28T20:20:47.194Z,29.10
2022-10-28T20:23:15.202Z,29.48
2022-10-28T20:25:52.504Z,27.13
2022-10-28T20:28:24.719Z,30.30
2022-10-28T20:31:04.852Z,30.67
2022-10-28T20:33:35.512Z,29.20
2022-10-28T20:36:23.376Z,28.33
2022-10-28T20:39:04.521Z,28.58
2022-10-28T20:41:35.697Z,28.50
2022-10-28T20:44:04.943Z,29.48
2022-10-28T20:46:34.361Z,28.25
2022-10-28T20:49:05.085Z,27.63
2022-10-28T20:51:35.359Z,30.17
2022-10-28T20:54:04.873Z,28.90
2022-10-28T20:56:38.773Z,27.98
2022-10-28T20:59:09.089Z,33.85
2022-10-28T21:01:41.826Z,29.92
2022-10-28T21:04:16.602Z,27.35
2022-10-28T21:06:48.980Z,25.65
2022-10-28T21:09:18.377Z,26.45
2022-10-28T21:11:45.919Z,27.20
2022-10-28T21:14:18.939Z,28.75
2022-10-28T21:16:52.834Z,29.00
2022-10-28T21:19:21.119Z,39.40
2022-10-28T21:21:51.267Z,33.85
2022-10-28T21:24:18.858Z,41.85
2022-10-28T21:26:52.024Z,39.08
2022-10-28T21:29:22.203Z,43.65
2022-10-28T21:31:54.355Z,37.50
2022-10-28T21:34:25.299Z,31.58
2022-10-28T21:36:57.332Z,27.75
2022-10-28T21:39:32.817Z,27.65
2022-10-28T21:42:00.862Z,27.13
2022-10-28T21:44:27.922Z,28.17
2022-10-28T21:46:58.676Z,37.97
2022-10-28T21:49:27.886Z,34.97
2022-10-28T21:51:56.942Z,41.90
2022-10-28T21:54:27.309Z,31.98
2022-10-28T21:56:55.073Z,30.60
2022-10-28T21:59:22.892Z,33.85
2022-10-28T22:01:52.293Z,46.03
2022-10-28T22:04:23.450Z,38.25
2022-10-28T22:06:57.998Z,34.55
2022-10-28T22:09:27.445Z,29.63
2022-10-28T22:11:57.488Z,32.55
2022-10-28T22:16:57.697Z,29.67
2022-10-28T22:19:41.882Z,45.38
2022-10-28T22:22:17.174Z,35.53
2022-10-28T22:25:03.772Z,31.92
2022-10-28T22:27:47.712Z,30.58
2022-10-28T22:30:14.956Z,31.00
2022-10-28T22:33:10.736Z,31.42
2022-10-28T22:36:15.414Z,37.15
2022-10-28T22:38:51.173Z,33.55
2022-10-28T22:41:27.039Z,40.30
2022-10-28T22:44:16.196Z,33.97
2022-10-28T22:46:49.004Z,29.63
2022-10-28T22:49:23.284Z,29.52
2022-10-28T22:51:52.547Z,33.58
2022-10-28T22:54:26.197Z,33.58
2022-10-28T22:56:54.385Z,32.67
2022-10-28T22:59:21.490Z,37.08
2022-10-28T23:01:53.860Z,47.13
2022-10-28T23:04:32.569Z,35.45
2022-10-28T23:07:03.931Z,35.72
2022-10-28T23:09:33.479Z,31.65
2022-10-28T23:12:04.393Z,39.05
2022-10-28T23:14:35.276Z,35.05
2022-10-28T23:17:07.550Z,28.35
2022-10-28T23:19:36.804Z,27.88
2022-10-28T23:22:07.726Z,27.38
2022-10-28T23:24:36.704Z,30.80
2022-10-28T23:27:07.379Z,31.23
2022-10-28T23:29:39.047Z,39.03
2022-10-28T23:32:07.452Z,28.65
2022-10-28T23:34:39.285Z,27.45
2022-10-28T23:37:14.493Z,28.35
2022-10-28T23:39:49.222Z,28.83
2022-10-28T23:42:20.215Z,27.33
2022-10-28T23:44:49.775Z,29.25
2022-10-28T23:47:24.103Z,35.05
2022-10-28T23:49:55.336Z,29.77
2022-10-28T23:52:25.341Z,30.80
2022-10-28T23:54:54.396Z,35.28
2022-10-28T23:57:25.867Z,29.20
2022-10-28T23:59:57.946Z,27.10
